天草空港

2018/03/29

蔵出 あまくさ 天草飛行場 2001/2/25 sun

2000年3月から就航した天草エアライン。熊本のローカル航空会社ながら-8で天草への高速アクセスの手段として、発足しました。

20010224_0rjft_00sol

略称はAMXながらICAOコードは、AHX

20010224_0rjft_01ja81am

AHX204 RJFT-RJDA JA81AM DHC8-103

さて、歩いて搭乗です。

20010224_1rjda_02ja81am

天草空港へのアプローチ、天草大橋が見えました。

20010224_1rjda_03bil

天草空港到着

20010224_1rjda_04bil

こじんまりした空港ビルですが、以外と大きい。

20010224_1rjda_05rjda

周辺を歩くと全体を見渡せる場所へ

20010224_1rjda_06rjda

天草空港の全体図。山の上を削って作られています。

20010224_1rjda_07ake

天草VOR/DME(AKE)

20010224_1rjda_08ja81am

機体は、このJA81AMだけ。今では退役して新しいATRに変わっている。

20010224_1rjda_09ja81am

くまもんになる前のみぞか号

20010224_1rjda_10ja81am

この日は、RW13

20010224_1rjda_11ja81am

AHX105 RJDA-RJFF JA81AM DHC8-103

20010224_1rjda_12rjda

帰ってくるまで、また空港周辺を散策

20010224_1rjda_13rjda

RW31エンド

20010224_1rjda_14rjda

航空障害灯が

20010224_1rjda_15ja81am

AHX106 RJFF-RJDA JA81AM DHC8-103

20010224_1rjda_16ja81am

これに乗って福岡へ向かいます。

20010224_2rjff_17ja81am

AHX107 RJDA-RJFF JA81AM DHC8-103

福岡空港到着。ここでお泊りして茸狩します。

| | コメント (0) | トラックバック (0)

2015/02/26

あの頃 天草空港 2001/2/24 sat

先日「一日親子イルカパラダイス2014」挑戦で14年ぶりに訪れた天草空港。開港翌年の2001年に訪れた画像があるので、当時を振り返ってみたいと思います。

この2001年は、前年の2000年はミレニアムで、時計が狂うだの、コンピューターが大変だのと大騒ぎした年でしたが、天草に訪れたころは、株価も好調で、日本にとっては一番良い頃だったのかも。この年9月には、あの9.11が発生。世界が変った年となった。

20010224_amx00rjtt_ja004d

当時東京在住の小生は、事ある事に出かけていた。ようやく初めてコンデジを購入したが、まだメモリーが高く、撮影は節約節約の頃でした。

羽田から熊本へJASでフライトです。羽田にはアトラスだとか、青組みの風トリプルなんかなが見られました。

20010224_amx01rjft_ja004d

JAS351 RJTT-RJFT JA004D MD-90

黒澤4号機で熊本到着。この日はカテゴリーⅢの日だった。

20010224_amx02rjft_ja004d

しばらくターミナルビルから飛来機を撮影。折り返しのJAS352。

20010224_amx03rjft

搭乗便はAMX204 熊本-天草です。

20010224_amx04rjft_ja81am

AMX204 RJFT-RJDA JA81AM DHC-8-100

先日搭乗したダッシュ8です。旧塗装にバックにはJASのA300が。

20010224_amx05ja81am

この日も雲中飛行でしたが、ファイナルアプローチ中に本渡の瀬戸大橋が見えた。この頃は、何撮っても問題が無かったのにな。

20010224_amx06rjda_tem

機体を降りて天草空港ターミナル。多分今と変わりない。

20010224_amx07rjda_ja81am

空港隣接の公園に行ってエプロンの機体を。

20010224_amx08rjda_ja81am

折り返し便を滑走路脇から

20010224_amx09rjda_ja81am

RW13と天草VOR/DME(AKE)

20010224_amx10rjda_ja81am

ブーン・・ たぶん福岡便だったと

20010224_amx11rjda_tmr

機体が帰ってくるまで、空港周辺を 空港入り口に立派な門標。

20010224_amx12rjda_rw31

RW31エンド側から

20010224_amx13rjda_ja81am

さーて、帰ってきました。ほんと短い間ですが、この機体で折り返し福岡へ帰ります。

20010224_amx14rjda_ja81am

「ようこそ あまくさ」は今でも

20010224_amx15rjff_ja81am

あまり画像が残ってなくて、いきなり福岡到着の図でした。この頃は、JASが運航支援していたのですね。太田さんは、この頃から乗っていらしたのですか?。

パラダイス搭乗記 続・パラダイス搭乗記

| | コメント (0) | トラックバック (0)

2015/02/22

続・パラダイス 天草エアライン 2015/2/18 wed

パラダイスのつづき

6レグが終わって、ここから天草-福岡2往復の「行」の時間です。

20150218_amx_50rjda

「天草最高!」 あまくさ って、草はあるのかなぁ? てんぐさ なら知ってるけど。で、こんな天草・・・ 

みかんの品種「天草」 
海上自衛隊多用途支援艦AMS4303「あまくさ」
超快速が魅力な「あまくさ」号

他は??? 

20150218_amx_51rjda

あらためて、天草福岡往復のチケットをいただいて・・

20150218_amx_52rjda

天草空港のマスコットは「てんくるくん」

20150218_amx_53ja81am

AMX105 RJDA-RJFF JA81AM DHC-8-100

20150218_amx_54ja81am

雨が降ってきて、タラップに屋根がつきました。

RJFF 180700Z 30011KT 270V330 9999 FEW030 BKN050 08/M00 Q1017 RMK 1CU030 6SC050 A3005

20150218_amx_55rjff

福岡は西日本空輸ハンガー前に到着

20150218_amx_56ja81am

みぞか号2度目の福岡

20150218_amx_58rjff

朝と同様にエスコートされて搭乗待合室へ。チョットVIP気分?

20150218_amx_60ja81am

まさしくトイレ休憩をして、今度は赤い16番の札を持って「みぞか号」へ

20150218_amx_61ja801b

お隣には、お隣長崎県のORCのダッシュ8 長崎航空で良かったのになぁ。

20150218_amx_62ja81am

AMX106 RJFF-RJDA JA81AM DHC-8-100

20150218_amx_63ja81am

機内はビジネス客が増えて、ほぼ満席。でもお見合い席の1列は空き。

20150218_amx_64rjda

天草空港では、テレビ取材が続いていた。今晩のお台場の放送みたいよ!

20150218_amx_65rjda

ターミナル内には図書館が出来ています。真ん中にソファでも準備してくらはい。

20150218_amx_66rjda

天草では各地にQRコードで案内にアクセスできる。

20150218_amx_67rjda

天草空港最後の出発です。

20150218_amx_68ja81am

AMX107 RJDA-RJFF JA81AM DHC-8-100

20150218_amx_69ja81am

夕方の薄暮が暮れて行きます。

20150218_amx_70ja81am

空港で取材していたテレビクルーが同乗して、CAさん取材。そのまま東京に戻るそうだ。

RJFF 180930Z 30008KT 260V320 9999 FEW030 SCT050 07/M01 Q1017 RMK 1CU030 4SC050 A3006

20150218_amx_71ja81am

よるのをふくおかぁ ダッシュ8は高翼の水平尾翼の灯りがカワイイ

20150218_amx_72rjff

最終レグ。外はすっかり闇につつまれて・・

20150218_amx_73rjff

朝と同じ14番 歩きながら撮ってるから、ブレブレ。これ、機体側で回収なのだが、欲しいグッズ。

20150218_amx_74ja81am

AMX108 RJFF-RJDA JA81AM DHC-8-100

これで最後かぁ、と言った感慨は無く、南風に吹かれてスキップ、スキップ

20150218_amx_75ja81am

福岡よ、さようなら。

20150218_amx_76ja81am

機内では、太田さんが待っていてくれる。待ってる人がいてくれるって、幸せ。で、だんだん記憶が蘇ってきて、14年前に乗った時にも、太田さんじゃなかったか。

20150218_amx_77rjda

天草とうちゃーく。福岡2往復のキャプテンは、谷本さん コパイは清水さん CAは生き字引の太田さん。皆さん、ありがとうございました。

20150218_amx_78rjda

また明日も乗りたいような。今度は天気の良い日に・・・ 搭乗証明書はNo.167でした。

20150218_amx_79ja81am

一日お疲れ様でした。明日も元気に泳いでちょうだいネ!

20150218_amx_80rjda

天草空港。マニア的に正しく標記すると「天草飛行場」 また、天草エアラインのICAOコードは、AMXではなくて、「AHX」。

20150218_amx_81rjda

産交バスに乗って本渡バスセンターに戻ります。明日もバスの旅。

ちなみに、テレビ放映はお台場系で、22日(本日)夜22時からの Mr.サンデー。

| | コメント (0) | トラックバック (0)

2015/02/21

パラダイス 天草エアライン 2015/2/18 wed

前日、熊本空港から九州産交バスを乗り継いで着いた場所は、天草市本渡。今日は、その本渡バスターミナルから出発です。

20150218_amx_00bus

早朝、生憎の曇りで、一日こんな状態ですかな。チョットがつかり。

20150218_amx_01bus

天草空港行きバスに揺られて、坂道を登りつめると・・・

20150218_amx_02rjda

天草空港に到着。石製のダッシュ8がお迎えです。

20150218_amx_03ja81am

2年前に新デザインになった「みぞか」号

AMX101 RJDA-RJFF JA81AM DHC-8-100

20150218_amx_04rjda

さっそく、カウンターで搭乗手続き。14年ぶりの天草エアライン搭乗。「一日親子イルカパラダイス2014」挑戦です。誓約書にサインして、福岡往復の101便と102便の搭乗券をもらいます。

20150218_amx_05rjda

セキュリティを通過して、エプロンへ。生憎天草空港のMETARは努力不足。

20150218_amx_06ja81am

大きなお目々がチャーミング。

20150218_amx_07ja81am

座席は、8E。くまモン席です。ゆっくり見れるのは、この機会だけです。

20150218_amx_08ja81am

機内での電子機器の利用制限が変更になりましたが、ダッシュ8は従来とおりなので、肝心の離着陸時は、NG。シュン。で、9000ftで巡航ですが、生憎の雲上で、地上は全く見れず。残念。

20150218_amx_09amx

機内には、お手製の案内資料のファイルがどっさり。ゆっくり見てる余裕が無かったので、(どーして?)一式コピーをもらっちゃいました。ありがとうございます。

RJFF 172330Z 31009KT 9999 FEW040 BKN050 08/M01 Q1018 RMK 1CU040 7SC050 A3007

20150218_amx_10ja81am

福岡も生憎の天候で、ILS36で着陸の模様でした。ここで給油です。第1ターミナルのフィンガーでJAL係員にピックアップされて、そのまま搭乗待合室へ。

20150218_amx_11rjff

予約時、なかなか空きがでなくて、苦慮した102便に搭乗します。

20150218_amx_12ja08fj

福岡空港も中小エアラインが増えて、FDAも当たり前に。

20150218_amx_13rjff

14番ゲートから歩いてスポットへ。福岡空港はスポット増設により、自走によるターンが無くなり、到着後にトーイングで向きが変えられています。

20150218_amx_14ja81am

AMX102 RJFF-RJDA JA81AM DHC-8-100

20150218_amx_15amx

今回は、最後列の艦長席・・ じゃなくって、右窓の10E。クラブのワンポイント切抜きが、おちゃめです。

20150218_amx_16amx

福岡から天草へも9000ftで巡航。上空から見たものは雲・くも・蜘蛛ちがぅぅ

20150218_amx_17amx

天草空港の電源車にもくまモンだー。

20150218_amx_18amx

なにやら、テレビクルーが・・・ どこなーん?

20150218_amx_19amx

次の搭乗手続きは、大阪往復が一括で、4枚をいただきます。

20150218_amx_20amx

ここにも、くまモン。

20150218_amx_21ja81am

AMX201 RJDA-RJFT JA81AM DHC-8-100

RJFT 180100Z 29007KT 9999 FEW025 SCT040 BKN050 07/M02 Q1018

20150218_amx_22ja81am

左エンジンには、「はるちゃん」

20150218_amx_23ja852a

熊本ではダッシュ8の兄弟も見れます。

20150218_amx_24rjft

熊本空港のマスコット「あそらくん」と「くまモン」

20150218_amx_25rjft

天草エアラインは、JALに運航支援を委託しているので、ターミナル東側7番登場口から。ジェットスターも同じ場所。

20150218_amx_26ja81am

また来たよ・・・

AMX801 RJFT-RJOO JA81AM DHC-8-100

20150218_amx_27amx

大阪伊丹行きは、9E。チョット寂し目。乗継以外の熊本からの利用増進を図らないとネ!

20150218_amx_28amx

伊丹線では時間が長いので、地元熊本の「みかんちゃん」と本物みかん。まさしく、くまモンサプライズ!

20150218_amx_29ja81am

伊丹到着は、12時ごろ。ここは少々ターンアラウンドが長いようで、昼食タイムですかな。

RJOO 180900Z 31004KT 270V360 9999 FEW020 SCT060 07/02 Q1013 RMK 1CU020 3SC060 A2991

20150218_amx_30ja81am

小生も機内でパクつきたいのを。

20150218_amx_31dhc8

はい、ここでもダッシュ8の兄弟。日本エアコミューターのQ400。

20150218_amx_32ja81am

AMX802 RJOO-RJFT JA81AM DHC-8-100

5たび搭乗。ここまでくると、まるで観光バスの乗り。チョットトイレ休憩みないなものです。

20150218_amx_33murakami

始発の福岡便からアテンドしてくださるのは、CAの村上さん。

20150218_amx_34murakami

お願いして、くまモンエプロンでパシャさせてもらいました。(ご本人承諾済み)

20150218_amx_35rjob

大阪ー熊本は瀬戸内海上空で雲がところどころ開けていて、遠く岡山空港を視認できた。

20150218_amx_36ja81am

しまなみ海道は、因島が良く見えました。

RJFT 180500Z 29007KT 260V330 9999 SCT040 BKN050 08/M02 Q1016

20150218_amx_37ja81am

熊本到着。天候はパラパラ振り。

20150218_amx_38rjft

熊本から天草に帰ります。

20150218_amx_39ja81am

よお、じゃなくて むお です。熊本-天草は巡航 4000ft 雲中飛行となりました。

AMX202 RJFT-RJDA JA81AM DHC-8-100

20150218_amx_40amx

かろうじて視認できた熊本駅。

20150218_amx_41ja81am

2度目の天草到着。ここで朝からの乗員さんがお終いです。キャプテンは、航空自衛隊出身元政府専用機機長 小松さん 副操縦士は、金子さん。CAは、スタイリッシュで笑顔が素敵な、村上茉莉子さんでした。ここまで、ありがとうございました。楽しいフライトでした。

20150218_amx_42rjda

エプロンから天草空港ビルに入るところで、くまモンがWELCOME。

この後は、続編につづく・・・

| | コメント (0) | トラックバック (0)

2005/10/04

空点描 那覇-福岡 JAL3606 2005/10/1

那覇から福岡までの空撮です。ルートはNAHAからBOMAPその後たぶんIKIまでダイレクトが出て、九州西海岸を一望して、長崎空港上空から、レーダーベクターでレフトウインド34でした。

20051001_JAL3606_iejima20051001_JAL3606_izenajima20051001_JAL3606_amakusa20051001_JAL3606_saga 1.西側からみた伊江島です。3本の滑走路はほとんど使われず海兵隊は一番手前のヘリパッドを使っています。

2.伊是名島 一番下の岬に場外があります

3.かろうじて雲の隙間から見た天草空港です。すこし補正しましたので見辛いです。

4.西側からみた佐賀空港 

乗機:JAL3606 RAOH-RJFF B763 JA8267

| | コメント (1) | トラックバック (0)

その他のカテゴリー

BI Boading record aircraft Boading record ship FlightTracking lighthouse NAVAIDS RJNT LOG SKY MASSAGE US NAVY USMC うみ おか そら てつ アクシデント エアロック チーム室屋 三沢飛行場 上五島空港 下地島空港 下総飛行場 与那国空港 中標津空港 中部国際空港 久米島空港 五島福江空港 仙台空港 伊江島空港 但馬空港 佐賀空港 入間飛行場 八尾空港 八戸飛行場 出雲空港 函館空港 利尻空港 北九州空港 十勝飛行場 千歳飛行場 博物館 厚木飛行場 名古屋飛行場 喜界空港 嘉手納飛行場 場外 壱岐空港 大分空港 大湊飛行場 大阪国際空港 大館能代空港 天草空港 奄美空港 奥尻空港 宇部山口空港 宇都宮飛行場 宮古空港 宮崎空港 富山空港 小松島飛行場 小松飛行場 屋久島空港 山形空港 岐阜飛行場 岡山空港 岩国飛行場 帯広空港 広島空港 庄内空港 徳之島空港 徳島飛行場 成田国際空港 新潟空港 新田原飛行場 旭川空港 旭川飛行場 明野飛行場 普天間飛行場 木更津飛行場 札幌飛行場 東京国際空港 松山空港 松島飛行場 松本空港 横田飛行場 沖永良部空港 波照間空港 浜松飛行場 海上保安庁 海上自衛隊 海外 熊本空港 百里飛行場 相馬原飛行場 石垣空港 石見空港 礼文空港 神戸空港 福井空港 福岡空港 福島空港 秋田空港 種子島空港 空撮 立川飛行場 築城飛行場 美保飛行場 能登空港 舞鶴飛行場 航空自衛隊 芦屋飛行場 花巻空港 調布飛行場 警務消防 那覇空港 釧路空港 長崎空港 関西国際空港 陸上自衛隊 隠岐空港 霞ヶ浦飛行場 霞目飛行場 青森空港 静岡空港 静浜飛行場 飛行場跡 飛行船 鹿児島空港 鹿屋飛行場